createdAt,value
2019-04-20T00:02:25.512Z,11.93
2019-04-20T00:04:59.217Z,12.01
2019-04-20T00:07:35.697Z,12.07
2019-04-20T00:10:13.475Z,12.06
2019-04-20T00:12:59.752Z,12.02
2019-04-20T00:15:19.703Z,11.94
2019-04-20T00:17:58.792Z,11.83
2019-04-20T00:20:32.371Z,11.75
2019-04-20T00:23:05.922Z,11.56
2019-04-20T00:26:00.458Z,11.47
2019-04-20T00:28:45.766Z,11.36
2019-04-20T00:31:19.014Z,11.34
2019-04-20T00:33:50.652Z,11.24
2019-04-20T00:36:14.395Z,11.08
2019-04-20T00:38:52.961Z,10.93
2019-04-20T00:41:24.660Z,10.70
2019-04-20T00:44:04.667Z,10.56
2019-04-20T00:46:48.657Z,10.56
2019-04-20T00:49:27.549Z,10.58
2019-04-20T00:52:17.159Z,10.52
2019-04-20T00:54:20.207Z,10.47
2019-04-20T00:57:05.760Z,10.40
2019-04-20T00:59:51.761Z,10.43
2019-04-20T01:02:21.019Z,10.44
2019-04-20T01:04:58.243Z,10.51
2019-04-20T01:07:39.474Z,10.64
2019-04-20T01:10:06.960Z,10.70
2019-04-20T01:12:42.404Z,10.73
2019-04-20T01:15:24.506Z,10.80
2019-04-20T01:17:51.653Z,10.94
2019-04-20T01:20:26.466Z,10.82
2019-04-20T01:23:09.249Z,10.75
2019-04-20T01:25:40.221Z,10.69
2019-04-20T01:28:27.727Z,10.63
2019-04-20T01:31:00.164Z,10.56
2019-04-20T01:33:31.821Z,10.42
2019-04-20T01:36:16.612Z,10.51
2019-04-20T01:38:47.377Z,10.55
2019-04-20T01:41:07.515Z,10.58
2019-04-20T01:43:41.550Z,10.62
2019-04-20T01:46:19.982Z,10.58
2019-04-20T01:48:50.654Z,10.53
2019-04-20T01:51:28.609Z,10.58
2019-04-20T01:54:24.961Z,10.65
2019-04-20T01:56:54.498Z,10.62
2019-04-20T01:59:37.090Z,10.41
2019-04-20T02:02:14.455Z,10.19
2019-04-20T02:04:49.249Z,10.14
2019-04-20T02:07:28.448Z,10.17
2019-04-20T02:10:03.108Z,9.99
2019-04-20T02:12:35.669Z,9.90
2019-04-20T02:15:20.047Z,9.98
2019-04-20T02:17:57.872Z,9.83
2019-04-20T02:20:37.605Z,9.83
2019-04-20T02:23:09.397Z,9.86
2019-04-20T02:25:31.041Z,9.90
2019-04-20T02:28:22.330Z,9.87
2019-04-20T02:31:18.489Z,9.88
2019-04-20T02:33:47.280Z,9.77
2019-04-20T02:37:08.065Z,9.60
2019-04-20T02:44:42.317Z,9.48
2019-04-20T02:47:14.911Z,9.56
2019-04-20T02:49:50.957Z,9.48
2019-04-20T02:52:32.683Z,9.38
2019-04-20T02:55:04.410Z,9.32
2019-04-20T02:57:41.607Z,9.33
2019-04-20T03:00:18.248Z,9.29
2019-04-20T03:02:27.220Z,9.28
2019-04-20T03:05:04.075Z,9.40
2019-04-20T03:07:48.014Z,9.48
2019-04-20T03:10:17.679Z,9.77
2019-04-20T03:12:57.039Z,9.68
2019-04-20T03:15:36.446Z,9.65
2019-04-20T03:18:12.388Z,9.65
2019-04-20T03:20:43.392Z,9.73
2019-04-20T03:23:39.479Z,9.92
2019-04-20T03:26:00.624Z,9.91
2019-04-20T03:28:42.973Z,9.74
2019-04-20T03:34:48.936Z,10.05
2019-04-20T03:36:49.520Z,9.86
2019-04-20T03:39:13.609Z,9.60
2019-04-20T03:41:39.438Z,9.60
2019-04-20T03:44:12.569Z,9.58
2019-04-20T03:46:51.611Z,9.62
2019-04-20T03:49:42.326Z,9.56
2019-04-20T03:52:30.056Z,9.71
2019-04-20T03:55:01.296Z,9.72
2019-04-20T03:57:57.618Z,9.70
2019-04-20T04:00:36.160Z,9.57
2019-04-20T04:03:31.801Z,9.44
2019-04-20T04:06:00.847Z,9.32
2019-04-20T04:08:29.816Z,9.26
2019-04-20T04:11:16.224Z,9.20
2019-04-20T04:13:31.454Z,9.18
2019-04-20T04:16:10.001Z,9.15
2019-04-20T04:18:44.652Z,9.44
2019-04-20T04:21:21.771Z,9.41
2019-04-20T04:24:07.424Z,9.34
2019-04-20T04:26:45.700Z,9.26
2019-04-20T04:29:27.346Z,9.47
2019-04-20T04:32:06.682Z,9.46
2019-04-20T04:34:34.729Z,9.49
2019-04-20T04:37:05.944Z,9.58
2019-04-20T04:39:46.714Z,9.52
2019-04-20T04:42:22.590Z,9.54
2019-04-20T04:44:45.935Z,9.60
2019-04-20T04:47:12.097Z,9.57
2019-04-20T04:49:56.175Z,9.72
2019-04-20T04:52:29.368Z,10.29
2019-04-20T04:55:09.542Z,11.04
2019-04-20T04:57:31.094Z,10.86
2019-04-20T05:00:10.213Z,11.24
2019-04-20T05:02:48.857Z,10.95
2019-04-20T05:05:37.011Z,10.19
2019-04-20T05:08:02.878Z,10.03
2019-04-20T05:10:28.919Z,10.06
2019-04-20T05:13:02.932Z,10.04
2019-04-20T05:15:48.454Z,10.00
2019-04-20T05:18:39.452Z,10.05
2019-04-20T05:21:11.894Z,10.14
2019-04-20T05:23:44.775Z,10.08
2019-04-20T05:26:44.786Z,10.15
2019-04-20T05:29:05.446Z,10.26
2019-04-20T05:31:40.403Z,10.34
2019-04-20T05:34:32.232Z,10.50
2019-04-20T05:37:04.738Z,10.62
2019-04-20T05:39:39.146Z,10.57
2019-04-20T05:42:20.290Z,10.73
2019-04-20T05:44:54.103Z,10.68
2019-04-20T05:47:31.557Z,10.77
2019-04-20T05:49:57.082Z,10.89
2019-04-20T05:52:58.275Z,10.81
2019-04-20T05:55:16.352Z,11.01
2019-04-20T05:57:50.769Z,11.27
2019-04-20T06:00:26.517Z,11.41
2019-04-20T06:02:57.889Z,12.28
2019-04-20T06:05:38.544Z,13.38
2019-04-20T06:08:05.182Z,13.89
2019-04-20T06:10:46.621Z,14.22
2019-04-20T06:13:18.672Z,14.17
2019-04-20T06:16:15.651Z,14.59
2019-04-20T06:19:10.227Z,15.85
2019-04-20T06:21:43.753Z,15.50
2019-04-20T06:24:29.232Z,14.67
2019-04-20T06:27:14.598Z,15.97
2019-04-20T06:29:38.045Z,15.69
2019-04-20T06:32:10.975Z,15.69
2019-04-20T06:35:08.289Z,16.31
2019-04-20T06:37:23.491Z,17.04
2019-04-20T06:40:29.276Z,16.19
2019-04-20T06:42:31.947Z,17.20
2019-04-20T06:45:09.856Z,17.84
2019-04-20T06:47:47.071Z,18.26
2019-04-20T06:50:18.195Z,17.15
2019-04-20T06:53:16.318Z,17.64
2019-04-20T06:55:48.448Z,17.22
2019-04-20T06:58:39.047Z,16.97
2019-04-20T07:01:03.705Z,17.68
2019-04-20T07:03:51.399Z,17.60
2019-04-20T07:06:29.318Z,18.03
2019-04-20T07:08:57.349Z,19.46
2019-04-20T07:11:29.203Z,18.39
2019-04-20T07:13:53.388Z,19.21
2019-04-20T07:16:46.482Z,20.01
2019-04-20T07:19:25.642Z,20.20
2019-04-20T07:22:30.091Z,18.18
2019-04-20T07:24:59.018Z,19.70
2019-04-20T07:27:29.489Z,18.80
2019-04-20T07:30:07.901Z,19.90
2019-04-20T07:32:48.541Z,20.23
2019-04-20T07:35:19.749Z,20.61
2019-04-20T07:40:25.786Z,20.80
2019-04-20T07:43:14.670Z,21.69
2019-04-20T07:45:56.516Z,21.03
2019-04-20T07:48:16.788Z,22.08
2019-04-20T07:50:40.675Z,21.63
2019-04-20T07:53:20.227Z,22.08
2019-04-20T07:56:17.722Z,21.39
2019-04-20T07:58:29.494Z,22.45
2019-04-20T08:01:24.217Z,21.99
2019-04-20T08:03:58.770Z,22.12
2019-04-20T08:06:27.319Z,21.49
2019-04-20T08:09:08.329Z,22.39
2019-04-20T08:11:55.153Z,21.12
2019-04-20T08:14:30.232Z,22.02
2019-04-20T08:17:13.993Z,21.67
2019-04-20T08:19:36.692Z,21.46
2019-04-20T08:22:15.144Z,22.10
2019-04-20T08:24:46.878Z,21.25
2019-04-20T08:27:09.165Z,20.17
2019-04-20T08:29:57.716Z,19.83
2019-04-20T08:32:51.557Z,19.83
2019-04-20T08:35:42.285Z,20.07
2019-04-20T08:38:47.303Z,20.16
2019-04-20T08:40:46.333Z,20.06
2019-04-20T08:43:34.549Z,20.28
2019-04-20T08:45:58.683Z,20.29
2019-04-20T08:48:33.271Z,20.19
2019-04-20T08:51:09.013Z,20.70
2019-04-20T08:53:41.843Z,20.64
2019-04-20T08:56:10.934Z,20.60
2019-04-20T08:58:34.048Z,20.91
2019-04-20T09:01:10.309Z,20.74
2019-04-20T09:03:55.875Z,20.52
2019-04-20T09:06:32.342Z,20.37
2019-04-20T09:09:17.338Z,20.54
2019-04-20T09:11:49.616Z,20.91
2019-04-20T09:14:21.338Z,21.08
2019-04-20T09:17:05.739Z,21.08
2019-04-20T09:19:47.932Z,21.15
2019-04-20T09:22:42.848Z,21.20
2019-04-20T09:25:42.536Z,21.59
2019-04-20T09:28:14.586Z,21.32
2019-04-20T09:30:55.832Z,21.24
2019-04-20T09:33:45.884Z,21.43
2019-04-20T09:36:34.705Z,21.83
2019-04-20T09:39:08.357Z,21.78
2019-04-20T09:41:58.972Z,21.57
2019-04-20T09:44:13.380Z,21.95
2019-04-20T09:46:51.494Z,21.71
2019-04-20T09:49:37.749Z,22.24
2019-04-20T09:52:14.555Z,22.68
2019-04-20T09:54:51.129Z,22.40
2019-04-20T09:57:30.581Z,22.14
2019-04-20T10:00:01.707Z,22.04
2019-04-20T10:02:24.928Z,22.37
2019-04-20T10:04:55.634Z,22.66
2019-04-20T10:07:33.702Z,22.63
2019-04-20T10:10:18.816Z,22.82
2019-04-20T10:12:41.944Z,22.67
2019-04-20T10:15:19.604Z,23.21
2019-04-20T10:17:51.965Z,22.77
2019-04-20T10:20:31.222Z,22.88
2019-04-20T10:23:02.579Z,23.48
2019-04-20T10:25:36.394Z,22.96
2019-04-20T10:28:11.658Z,23.20
2019-04-20T10:30:46.295Z,23.25
2019-04-20T10:33:21.746Z,23.36
2019-04-20T10:35:55.360Z,23.29
2019-04-20T10:38:34.761Z,23.28
2019-04-20T10:41:14.875Z,23.65
2019-04-20T10:43:43.252Z,23.57
2019-04-20T10:46:17.346Z,23.81
2019-04-20T10:48:53.135Z,23.25
2019-04-20T10:51:26.158Z,23.64
2019-04-20T10:54:00.465Z,23.62
2019-04-20T10:56:34.046Z,23.36
2019-04-20T10:59:07.779Z,23.67
2019-04-20T11:01:41.250Z,23.77
2019-04-20T11:04:14.886Z,23.80
2019-04-20T11:06:48.425Z,23.71
2019-04-20T11:11:54.611Z,23.98
2019-04-20T11:14:33.575Z,23.82
2019-04-20T11:17:04.419Z,23.78
2019-04-20T11:19:39.234Z,23.99
2019-04-20T11:22:13.015Z,23.77
2019-04-20T11:24:48.155Z,23.65
2019-04-20T11:27:22.518Z,23.52
2019-04-20T11:29:56.116Z,24.18
2019-04-20T11:32:30.386Z,24.18
2019-04-20T11:35:09.106Z,24.22
2019-04-20T11:37:40.303Z,23.91
2019-04-20T11:40:15.025Z,23.98
2019-04-20T11:42:49.879Z,23.91
2019-04-20T11:45:24.891Z,23.93
2019-04-20T11:47:58.513Z,24.16
2019-04-20T11:50:32.035Z,24.08
2019-04-20T11:53:05.656Z,23.64
2019-04-20T11:55:40.437Z,23.85
2019-04-20T11:58:14.485Z,24.16
2019-04-20T12:01:03.258Z,23.76
2019-04-20T12:03:41.386Z,24.33
2019-04-20T12:06:08.463Z,24.33
2019-04-20T12:08:42.684Z,24.08
2019-04-20T12:11:29.703Z,24.29
2019-04-20T12:13:52.297Z,24.19
2019-04-20T12:16:26.169Z,24.28
2019-04-20T12:19:00.158Z,24.32
2019-04-20T12:21:34.809Z,24.39
2019-04-20T12:24:08.451Z,24.15
2019-04-20T12:26:42.745Z,24.43
2019-04-20T12:29:16.332Z,24.67
2019-04-20T12:31:53.793Z,24.39
2019-04-20T12:34:26.467Z,24.43
2019-04-20T12:37:00.770Z,24.62
2019-04-20T12:39:35.356Z,24.31
2019-04-20T12:42:09.608Z,24.67
2019-04-20T12:44:44.138Z,24.54
2019-04-20T12:47:19.642Z,24.14
2019-04-20T12:49:53.750Z,24.23
2019-04-20T12:52:28.285Z,24.20
2019-04-20T12:55:04.634Z,24.53
2019-04-20T12:57:38.609Z,25.02
2019-04-20T13:00:15.303Z,24.71
2019-04-20T13:02:49.502Z,24.59
2019-04-20T13:05:23.162Z,24.58
2019-04-20T13:08:00.786Z,24.12
2019-04-20T13:10:33.563Z,24.78
2019-04-20T13:13:10.291Z,24.53
2019-04-20T13:15:46.649Z,24.89
2019-04-20T13:18:23.231Z,24.92
2019-04-20T13:20:58.774Z,25.24
2019-04-20T13:23:33.136Z,24.71
2019-04-20T13:26:08.764Z,24.90
2019-04-20T13:28:43.030Z,24.93
2019-04-20T13:31:17.803Z,24.97
2019-04-20T13:33:51.698Z,24.84
2019-04-20T13:36:26.146Z,25.22
2019-04-20T13:38:59.882Z,24.51
2019-04-20T13:41:33.729Z,24.79
2019-04-20T13:44:08.362Z,24.64
2019-04-20T13:46:42.921Z,24.76
2019-04-20T13:49:16.536Z,24.74
2019-04-20T13:51:50.851Z,25.26
2019-04-20T13:54:27.594Z,24.92
2019-04-20T13:57:01.882Z,25.07
2019-04-20T13:59:39.981Z,25.08
2019-04-20T14:02:30.908Z,25.00
2019-04-20T14:05:06.651Z,25.18
2019-04-20T14:07:41.649Z,24.98
2019-04-20T14:10:15.485Z,25.49
2019-04-20T14:12:56.552Z,25.30
2019-04-20T14:15:24.876Z,25.39
2019-04-20T14:17:59.348Z,25.27
2019-04-20T14:20:34.081Z,25.06
2019-04-20T14:23:07.607Z,25.00
2019-04-20T14:25:41.114Z,25.06
2019-04-20T14:28:15.390Z,24.78
2019-04-20T14:30:49.963Z,24.85
2019-04-20T14:33:24.227Z,25.17
2019-04-20T14:35:58.989Z,25.29
2019-04-20T14:38:33.740Z,25.09
2019-04-20T14:41:10.732Z,25.31
2019-04-20T14:43:44.707Z,25.01
2019-04-20T14:46:18.807Z,25.19
2019-04-20T14:48:52.518Z,25.11
2019-04-20T14:51:26.223Z,25.00
2019-04-20T14:54:01.286Z,25.22
2019-04-20T14:56:35.798Z,25.14
2019-04-20T14:59:29.608Z,24.98
2019-04-20T15:02:15.384Z,24.98
2019-04-20T15:04:50.316Z,24.99
2019-04-20T15:07:24.666Z,25.04
2019-04-20T15:09:58.679Z,25.10
2019-04-20T15:12:41.660Z,25.31
2019-04-20T15:15:08.508Z,25.35
2019-04-20T15:17:43.820Z,25.22
2019-04-20T15:20:19.348Z,24.90
2019-04-20T15:22:53.751Z,24.84
2019-04-20T15:25:27.791Z,24.81
2019-04-20T15:28:02.631Z,25.00
2019-04-20T15:30:36.388Z,25.04
2019-04-20T15:33:10.033Z,25.13
2019-04-20T15:35:44.198Z,24.93
2019-04-20T15:38:17.609Z,25.38
2019-04-20T15:40:51.170Z,25.86
2019-04-20T15:43:27.756Z,26.16
2019-04-20T15:46:01.185Z,26.24
2019-04-20T15:48:34.740Z,26.17
2019-04-20T15:51:08.318Z,26.10
2019-04-20T15:53:42.038Z,26.12
2019-04-20T15:56:16.539Z,26.75
2019-04-20T15:58:50.459Z,26.17
2019-04-20T16:01:26.136Z,26.94
2019-04-20T16:04:06.850Z,26.54
2019-04-20T16:06:41.184Z,27.05
2019-04-20T16:09:15.657Z,26.09
2019-04-20T16:11:50.839Z,26.06
2019-04-20T16:14:25.690Z,26.18
2019-04-20T16:17:00.710Z,26.93
2019-04-20T16:19:44.872Z,26.34
2019-04-20T16:22:10.081Z,27.41
2019-04-20T16:24:51.689Z,26.44
2019-04-20T16:27:27.723Z,26.65
2019-04-20T16:30:02.323Z,26.36
2019-04-20T16:32:36.610Z,26.89
2019-04-20T16:35:10.944Z,26.80
2019-04-20T16:37:44.877Z,26.45
2019-04-20T16:40:19.839Z,25.83
2019-04-20T16:42:54.344Z,25.98
2019-04-20T16:45:29.460Z,25.93
2019-04-20T16:48:04.706Z,26.29
2019-04-20T16:50:44.885Z,26.38
2019-04-20T16:53:19.128Z,26.23
2019-04-20T16:55:52.817Z,26.85
2019-04-20T16:58:26.326Z,26.25
2019-04-20T17:01:01.166Z,25.84
2019-04-20T17:03:44.164Z,25.67
2019-04-20T17:06:10.321Z,25.45
2019-04-20T17:08:44.813Z,25.62
2019-04-20T17:11:19.062Z,25.27
2019-04-20T17:13:56.224Z,25.17
2019-04-20T17:16:28.065Z,25.20
2019-04-20T17:19:13.615Z,25.07
2019-04-20T17:21:48.590Z,24.69
2019-04-20T17:24:22.176Z,23.76
2019-04-20T17:27:01.267Z,23.56
2019-04-20T17:29:50.120Z,23.46
2019-04-20T17:32:25.498Z,23.27
2019-04-20T17:35:14.629Z,23.10
2019-04-20T17:37:39.942Z,23.09
2019-04-20T17:40:30.077Z,23.07
2019-04-20T17:42:56.677Z,23.02
2019-04-20T17:45:35.404Z,22.97
2019-04-20T17:48:08.505Z,22.85
2019-04-20T17:50:54.566Z,22.77
2019-04-20T17:53:29.941Z,22.75
2019-04-20T17:55:54.748Z,22.58
2019-04-20T17:58:32.315Z,22.36
2019-04-20T18:01:32.974Z,22.29
2019-04-20T18:04:27.311Z,22.29
2019-04-20T18:06:47.791Z,22.13
2019-04-20T18:09:34.615Z,21.94
2019-04-20T18:11:52.026Z,21.95
2019-04-20T18:14:37.408Z,21.84
2019-04-20T18:17:30.465Z,21.68
2019-04-20T18:19:54.554Z,21.40
2019-04-20T18:22:29.635Z,21.18
2019-04-20T18:25:27.345Z,20.94
2019-04-20T18:27:57.043Z,20.83
2019-04-20T18:30:33.409Z,20.62
2019-04-20T18:32:55.642Z,20.38
2019-04-20T18:35:34.811Z,20.22
2019-04-20T18:38:10.991Z,19.81
2019-04-20T18:40:51.437Z,19.98
2019-04-20T18:43:20.505Z,20.13
2019-04-20T18:46:08.147Z,20.05
2019-04-20T18:48:48.514Z,19.94
2019-04-20T18:51:01.817Z,20.01
2019-04-20T18:53:41.148Z,19.94
2019-04-20T18:56:12.201Z,19.73
2019-04-20T18:58:47.022Z,19.42
2019-04-20T19:01:29.402Z,19.05
2019-04-20T19:03:57.292Z,18.79
2019-04-20T19:06:31.828Z,18.42
2019-04-20T19:09:09.511Z,18.21
2019-04-20T19:11:47.802Z,17.74
2019-04-20T19:14:28.581Z,17.56
2019-04-20T19:17:08.972Z,17.27
2019-04-20T19:19:52.899Z,17.30
2019-04-20T19:22:23.928Z,17.11
2019-04-20T19:24:58.004Z,16.90
2019-04-20T19:27:40.046Z,16.76
2019-04-20T19:30:23.803Z,16.87
2019-04-20T19:33:04.977Z,16.67
2019-04-20T19:35:33.548Z,16.67
2019-04-20T19:38:06.627Z,16.55
2019-04-20T19:40:45.710Z,16.25
2019-04-20T19:43:21.530Z,16.33
2019-04-20T19:46:25.561Z,16.29
2019-04-20T19:48:32.633Z,16.45
2019-04-20T19:51:22.503Z,16.42
2019-04-20T19:53:50.705Z,16.25
2019-04-20T19:56:16.625Z,16.26
2019-04-20T19:58:56.383Z,16.07
2019-04-20T20:01:15.787Z,16.09
2019-04-20T20:03:56.575Z,15.96
2019-04-20T20:06:35.445Z,15.96
2019-04-20T20:09:04.223Z,15.60
2019-04-20T20:11:40.566Z,15.76
2019-04-20T20:14:13.154Z,15.90
2019-04-20T20:17:02.674Z,15.64
2019-04-20T20:19:37.144Z,15.64
2019-04-20T20:22:10.342Z,15.63
2019-04-20T20:24:33.346Z,15.51
2019-04-20T20:27:17.148Z,15.31
2019-04-20T20:29:57.187Z,15.43
2019-04-20T20:32:31.280Z,15.58
2019-04-20T20:35:04.437Z,15.78
2019-04-20T20:37:34.786Z,15.83
2019-04-20T20:40:16.163Z,15.90
2019-04-20T20:42:52.998Z,16.03
2019-04-20T20:45:26.299Z,15.93
2019-04-20T20:48:09.205Z,15.93
2019-04-20T20:50:50.182Z,15.88
2019-04-20T20:53:15.813Z,15.65
2019-04-20T20:55:44.344Z,15.53
2019-04-20T20:58:21.195Z,15.54
2019-04-20T21:00:57.534Z,15.37
2019-04-20T21:03:32.238Z,15.35
2019-04-20T21:06:00.011Z,15.61
2019-04-20T21:08:36.246Z,15.51
2019-04-20T21:11:13.126Z,15.36
2019-04-20T21:13:47.268Z,15.27
2019-04-20T21:16:25.005Z,15.22
2019-04-20T21:19:15.985Z,15.40
2019-04-20T21:21:42.183Z,15.42
2019-04-20T21:24:15.598Z,15.50
2019-04-20T21:26:45.961Z,15.56
2019-04-20T21:29:27.361Z,15.54
2019-04-20T21:32:01.800Z,15.58
2019-04-20T21:34:33.130Z,15.48
2019-04-20T21:37:11.839Z,15.50
2019-04-20T21:39:46.463Z,15.51
2019-04-20T21:42:20.986Z,15.43
2019-04-20T21:45:05.703Z,15.31
2019-04-20T21:47:33.593Z,15.21
2019-04-20T21:50:21.636Z,15.21
2019-04-20T21:52:45.128Z,15.27
2019-04-20T21:55:16.295Z,15.29
2019-04-20T21:57:53.949Z,15.30
2019-04-20T22:00:44.570Z,15.30
2019-04-20T22:03:15.477Z,15.28
2019-04-20T22:05:50.564Z,15.21
2019-04-20T22:08:24.343Z,15.11
2019-04-20T22:10:57.922Z,15.01
2019-04-20T22:13:37.633Z,15.02
2019-04-20T22:16:11.027Z,15.71
2019-04-20T22:18:52.498Z,16.13
2019-04-20T22:21:26.444Z,15.94
2019-04-20T22:24:06.798Z,15.70
2019-04-20T22:26:39.461Z,15.22
2019-04-20T22:29:05.853Z,14.76
2019-04-20T22:31:40.272Z,14.45
2019-04-20T22:34:20.557Z,14.35
2019-04-20T22:36:50.571Z,14.38
2019-04-20T22:39:43.247Z,14.77
2019-04-20T22:42:16.157Z,15.23
2019-04-20T22:44:58.715Z,16.57
2019-04-20T22:47:28.990Z,17.39
2019-04-20T22:50:31.930Z,17.79
2019-04-20T22:52:44.337Z,17.77
2019-04-20T22:55:41.095Z,18.00
2019-04-20T22:57:57.419Z,17.95
2019-04-20T23:00:36.548Z,17.96
2019-04-20T23:02:58.782Z,17.93
2019-04-20T23:05:33.007Z,18.10
2019-04-20T23:08:06.766Z,18.01
2019-04-20T23:10:44.807Z,18.04
2019-04-20T23:13:15.800Z,17.92
2019-04-20T23:15:55.168Z,17.92
2019-04-20T23:18:26.289Z,17.81
2019-04-20T23:21:05.048Z,17.86
2019-04-20T23:23:35.737Z,17.76
2019-04-20T23:26:09.473Z,17.85
2019-04-20T23:28:49.418Z,17.71
2019-04-20T23:31:22.285Z,17.84
2019-04-20T23:33:53.999Z,17.75
2019-04-20T23:36:36.523Z,17.61
2019-04-20T23:39:04.908Z,17.53
2019-04-20T23:41:42.644Z,17.55
2019-04-20T23:44:23.038Z,17.54
2019-04-20T23:47:12.053Z,17.58
2019-04-20T23:50:05.999Z,17.56
2019-04-20T23:52:44.626Z,17.56
2019-04-20T23:55:02.022Z,17.64
2019-04-20T23:57:31.613Z,17.47
